sensor_id;sensor_type;location;lat;lon;timestamp;temperature;humidity
2012;DHT22;1009;51.436;6.972;2023-07-24T00:00:38;18.50;99.90
2012;DHT22;1009;51.436;6.972;2023-07-24T00:03:06;18.50;99.90
2012;DHT22;1009;51.436;6.972;2023-07-24T00:05:33;18.50;99.90
2012;DHT22;1009;51.436;6.972;2023-07-24T00:08:01;18.50;99.90
2012;DHT22;1009;51.436;6.972;2023-07-24T00:10:28;18.50;99.90
2012;DHT22;1009;51.436;6.972;2023-07-24T00:12:55;18.50;99.90
2012;DHT22;1009;51.436;6.972;2023-07-24T00:15:22;18.50;99.90
2012;DHT22;1009;51.436;6.972;2023-07-24T00:17:49;18.60;99.90
2012;DHT22;1009;51.436;6.972;2023-07-24T00:20:16;18.60;99.90
2012;DHT22;1009;51.436;6.972;2023-07-24T00:22:42;18.60;99.90
2012;DHT22;1009;51.436;6.972;2023-07-24T00:25:10;18.60;99.90
2012;DHT22;1009;51.436;6.972;2023-07-24T00:27:37;18.60;99.90
2012;DHT22;1009;51.436;6.972;2023-07-24T00:30:05;18.60;99.90
2012;DHT22;1009;51.436;6.972;2023-07-24T00:32:32;18.50;99.90
2012;DHT22;1009;51.436;6.972;2023-07-24T00:34:59;18.50;99.90
2012;DHT22;1009;51.436;6.972;2023-07-24T00:37:25;18.60;99.90
2012;DHT22;1009;51.436;6.972;2023-07-24T00:39:52;18.50;99.90
2012;DHT22;1009;51.436;6.972;2023-07-24T00:42:20;18.60;99.90
2012;DHT22;1009;51.436;6.972;2023-07-24T00:44:47;18.50;99.90
2012;DHT22;1009;51.436;6.972;2023-07-24T00:47:14;18.50;99.90
2012;DHT22;1009;51.436;6.972;2023-07-24T00:49:41;18.50;99.90
2012;DHT22;1009;51.436;6.972;2023-07-24T00:52:08;18.50;99.90
2012;DHT22;1009;51.436;6.972;2023-07-24T00:54:35;18.50;99.90
2012;DHT22;1009;51.436;6.972;2023-07-24T00:57:03;18.40;99.90
2012;DHT22;1009;51.436;6.972;2023-07-24T00:59:32;18.40;99.90
2012;DHT22;1009;51.436;6.972;2023-07-24T01:01:59;18.40;99.90
2012;DHT22;1009;51.436;6.972;2023-07-24T01:04:26;18.40;99.90
2012;DHT22;1009;51.436;6.972;2023-07-24T01:06:52;18.40;99.90
2012;DHT22;1009;51.436;6.972;2023-07-24T01:09:19;18.40;99.90
2012;DHT22;1009;51.436;6.972;2023-07-24T01:11:49;18.40;99.90
2012;DHT22;1009;51.436;6.972;2023-07-24T01:14:20;18.40;99.90
2012;DHT22;1009;51.436;6.972;2023-07-24T01:16:50;18.40;99.90
2012;DHT22;1009;51.436;6.972;2023-07-24T01:19:25;18.40;99.90
2012;DHT22;1009;51.436;6.972;2023-07-24T01:22:01;18.40;99.90
2012;DHT22;1009;51.436;6.972;2023-07-24T01:24:33;18.40;99.90
2012;DHT22;1009;51.436;6.972;2023-07-24T01:27:03;18.40;99.90
2012;DHT22;1009;51.436;6.972;2023-07-24T01:29:30;18.40;99.90
2012;DHT22;1009;51.436;6.972;2023-07-24T01:31:57;18.40;99.90
2012;DHT22;1009;51.436;6.972;2023-07-24T01:34:24;18.40;99.90
2012;DHT22;1009;51.436;6.972;2023-07-24T01:36:51;18.40;99.90
2012;DHT22;1009;51.436;6.972;2023-07-24T01:39:19;18.40;99.90
2012;DHT22;1009;51.436;6.972;2023-07-24T01:41:47;18.30;99.90
2012;DHT22;1009;51.436;6.972;2023-07-24T01:44:15;18.30;99.90
2012;DHT22;1009;51.436;6.972;2023-07-24T01:46:42;18.30;99.90
2012;DHT22;1009;51.436;6.972;2023-07-24T01:49:08;18.40;99.90
2012;DHT22;1009;51.436;6.972;2023-07-24T01:51:35;18.40;99.90
2012;DHT22;1009;51.436;6.972;2023-07-24T01:54:02;18.30;99.90
2012;DHT22;1009;51.436;6.972;2023-07-24T01:56:29;18.30;99.90
2012;DHT22;1009;51.436;6.972;2023-07-24T01:58:55;18.30;99.90
2012;DHT22;1009;51.436;6.972;2023-07-24T02:01:23;18.30;99.90
2012;DHT22;1009;51.436;6.972;2023-07-24T02:03:50;18.30;99.90
2012;DHT22;1009;51.436;6.972;2023-07-24T02:06:17;18.30;99.90
2012;DHT22;1009;51.436;6.972;2023-07-24T02:08:44;18.30;99.90
2012;DHT22;1009;51.436;6.972;2023-07-24T02:11:14;18.30;99.90
2012;DHT22;1009;51.436;6.972;2023-07-24T02:13:44;18.40;99.90
2012;DHT22;1009;51.436;6.972;2023-07-24T02:16:11;18.40;99.90
2012;DHT22;1009;51.436;6.972;2023-07-24T02:18:41;18.40;99.90
2012;DHT22;1009;51.436;6.972;2023-07-24T02:21:08;18.30;99.90
2012;DHT22;1009;51.436;6.972;2023-07-24T02:23:35;18.30;99.90
2012;DHT22;1009;51.436;6.972;2023-07-24T02:26:02;18.30;99.90
2012;DHT22;1009;51.436;6.972;2023-07-24T02:28:29;18.30;99.90
2012;DHT22;1009;51.436;6.972;2023-07-24T02:30:56;18.30;99.90
2012;DHT22;1009;51.436;6.972;2023-07-24T02:33:23;18.30;99.90
2012;DHT22;1009;51.436;6.972;2023-07-24T02:35:53;18.30;99.90
2012;DHT22;1009;51.436;6.972;2023-07-24T02:38:20;18.30;99.90
2012;DHT22;1009;51.436;6.972;2023-07-24T02:40:47;18.30;99.90
2012;DHT22;1009;51.436;6.972;2023-07-24T02:43:13;18.40;99.90
2012;DHT22;1009;51.436;6.972;2023-07-24T02:45:40;18.40;99.90
2012;DHT22;1009;51.436;6.972;2023-07-24T02:48:07;18.40;99.90
2012;DHT22;1009;51.436;6.972;2023-07-24T02:50:34;18.50;99.90
2012;DHT22;1009;51.436;6.972;2023-07-24T02:53:02;18.50;99.90
2012;DHT22;1009;51.436;6.972;2023-07-24T02:55:29;18.50;99.90
2012;DHT22;1009;51.436;6.972;2023-07-24T02:57:56;18.60;99.90
2012;DHT22;1009;51.436;6.972;2023-07-24T03:00:23;18.60;99.90
2012;DHT22;1009;51.436;6.972;2023-07-24T03:02:51;18.60;99.90
2012;DHT22;1009;51.436;6.972;2023-07-24T03:05:18;18.60;99.90
2012;DHT22;1009;51.436;6.972;2023-07-24T03:07:45;18.70;99.90
2012;DHT22;1009;51.436;6.972;2023-07-24T03:10:13;18.60;99.90
2012;DHT22;1009;51.436;6.972;2023-07-24T03:12:40;18.60;99.90
2012;DHT22;1009;51.436;6.972;2023-07-24T03:15:07;18.60;99.90
2012;DHT22;1009;51.436;6.972;2023-07-24T03:17:34;18.60;99.90
2012;DHT22;1009;51.436;6.972;2023-07-24T03:20:08;18.50;99.90
2012;DHT22;1009;51.436;6.972;2023-07-24T03:22:35;18.50;99.90
2012;DHT22;1009;51.436;6.972;2023-07-24T03:25:02;18.40;99.90
2012;DHT22;1009;51.436;6.972;2023-07-24T03:27:31;18.40;99.90
2012;DHT22;1009;51.436;6.972;2023-07-24T03:29:57;18.40;99.90
2012;DHT22;1009;51.436;6.972;2023-07-24T03:32:26;18.40;99.90
2012;DHT22;1009;51.436;6.972;2023-07-24T03:34:53;18.40;99.90
2012;DHT22;1009;51.436;6.972;2023-07-24T03:37:19;18.40;99.90
2012;DHT22;1009;51.436;6.972;2023-07-24T03:39:46;18.40;99.90
2012;DHT22;1009;51.436;6.972;2023-07-24T03:42:24;18.40;99.90
2012;DHT22;1009;51.436;6.972;2023-07-24T03:44:53;18.40;99.90
2012;DHT22;1009;51.436;6.972;2023-07-24T03:47:19;18.30;99.90
2012;DHT22;1009;51.436;6.972;2023-07-24T03:49:46;18.30;99.90
2012;DHT22;1009;51.436;6.972;2023-07-24T03:52:13;18.40;99.90
2012;DHT22;1009;51.436;6.972;2023-07-24T03:54:40;18.40;99.90
2012;DHT22;1009;51.436;6.972;2023-07-24T03:57:07;18.40;99.90
2012;DHT22;1009;51.436;6.972;2023-07-24T03:59:33;18.30;99.90
2012;DHT22;1009;51.436;6.972;2023-07-24T04:02:02;18.30;99.90
2012;DHT22;1009;51.436;6.972;2023-07-24T04:04:28;18.30;99.90
2012;DHT22;1009;51.436;6.972;2023-07-24T04:06:55;18.30;99.90
2012;DHT22;1009;51.436;6.972;2023-07-24T04:09:22;18.30;99.90
2012;DHT22;1009;51.436;6.972;2023-07-24T04:11:49;18.40;99.90
2012;DHT22;1009;51.436;6.972;2023-07-24T04:14:16;18.40;99.90
2012;DHT22;1009;51.436;6.972;2023-07-24T04:16:42;18.40;99.90
2012;DHT22;1009;51.436;6.972;2023-07-24T04:19:11;18.40;99.90
2012;DHT22;1009;51.436;6.972;2023-07-24T04:21:38;18.40;99.90
2012;DHT22;1009;51.436;6.972;2023-07-24T04:24:05;18.40;99.90
2012;DHT22;1009;51.436;6.972;2023-07-24T04:26:32;18.40;99.90
2012;DHT22;1009;51.436;6.972;2023-07-24T04:28:59;18.30;99.90
2012;DHT22;1009;51.436;6.972;2023-07-24T04:31:25;18.30;99.90
2012;DHT22;1009;51.436;6.972;2023-07-24T04:33:52;18.30;99.90
2012;DHT22;1009;51.436;6.972;2023-07-24T04:36:20;18.40;99.90
2012;DHT22;1009;51.436;6.972;2023-07-24T04:38:47;18.40;99.90
2012;DHT22;1009;51.436;6.972;2023-07-24T04:41:14;18.40;99.90
2012;DHT22;1009;51.436;6.972;2023-07-24T04:43:41;18.40;99.90
2012;DHT22;1009;51.436;6.972;2023-07-24T04:46:08;18.40;99.90
2012;DHT22;1009;51.436;6.972;2023-07-24T04:48:35;18.40;99.90
2012;DHT22;1009;51.436;6.972;2023-07-24T04:51:02;18.40;99.90
2012;DHT22;1009;51.436;6.972;2023-07-24T04:53:30;18.40;99.90
2012;DHT22;1009;51.436;6.972;2023-07-24T04:55:57;18.30;99.90
2012;DHT22;1009;51.436;6.972;2023-07-24T04:58:23;18.30;99.90
2012;DHT22;1009;51.436;6.972;2023-07-24T05:00:50;18.30;99.90
2012;DHT22;1009;51.436;6.972;2023-07-24T05:03:17;18.40;99.90
2012;DHT22;1009;51.436;6.972;2023-07-24T05:05:48;18.40;99.90
2012;DHT22;1009;51.436;6.972;2023-07-24T05:08:14;18.30;99.90
2012;DHT22;1009;51.436;6.972;2023-07-24T05:10:42;18.30;99.90
2012;DHT22;1009;51.436;6.972;2023-07-24T05:13:09;18.30;99.90
2012;DHT22;1009;51.436;6.972;2023-07-24T05:15:36;18.30;99.90
2012;DHT22;1009;51.436;6.972;2023-07-24T05:18:03;18.30;99.90
2012;DHT22;1009;51.436;6.972;2023-07-24T05:20:29;18.40;99.90
2012;DHT22;1009;51.436;6.972;2023-07-24T05:22:56;18.40;99.90
2012;DHT22;1009;51.436;6.972;2023-07-24T05:25:23;18.40;99.90
2012;DHT22;1009;51.436;6.972;2023-07-24T05:27:51;18.30;99.90
2012;DHT22;1009;51.436;6.972;2023-07-24T05:30:18;18.30;99.90
2012;DHT22;1009;51.436;6.972;2023-07-24T05:32:44;18.30;99.90
2012;DHT22;1009;51.436;6.972;2023-07-24T05:35:11;18.30;99.90
2012;DHT22;1009;51.436;6.972;2023-07-24T05:37:38;18.30;99.90
2012;DHT22;1009;51.436;6.972;2023-07-24T05:40:06;18.30;99.90
2012;DHT22;1009;51.436;6.972;2023-07-24T05:42:33;18.30;99.90
2012;DHT22;1009;51.436;6.972;2023-07-24T05:45:07;18.30;99.90
2012;DHT22;1009;51.436;6.972;2023-07-24T05:47:34;18.40;99.90
2012;DHT22;1009;51.436;6.972;2023-07-24T05:50:01;18.40;99.90
2012;DHT22;1009;51.436;6.972;2023-07-24T05:52:28;18.40;99.90
2012;DHT22;1009;51.436;6.972;2023-07-24T05:54:55;18.40;99.90
2012;DHT22;1009;51.436;6.972;2023-07-24T05:57:22;18.50;99.90
2012;DHT22;1009;51.436;6.972;2023-07-24T05:59:49;18.50;99.90
2012;DHT22;1009;51.436;6.972;2023-07-24T06:02:18;18.50;99.90
2012;DHT22;1009;51.436;6.972;2023-07-24T06:04:45;18.50;99.90
2012;DHT22;1009;51.436;6.972;2023-07-24T06:07:12;18.50;99.90
2012;DHT22;1009;51.436;6.972;2023-07-24T06:09:39;18.50;99.90
2012;DHT22;1009;51.436;6.972;2023-07-24T06:12:06;18.50;99.90
2012;DHT22;1009;51.436;6.972;2023-07-24T06:14:33;18.60;99.90
2012;DHT22;1009;51.436;6.972;2023-07-24T06:16:59;18.60;99.90
2012;DHT22;1009;51.436;6.972;2023-07-24T06:19:28;18.60;99.90
2012;DHT22;1009;51.436;6.972;2023-07-24T06:21:54;18.60;99.90
2012;DHT22;1009;51.436;6.972;2023-07-24T06:24:21;18.70;99.90
2012;DHT22;1009;51.436;6.972;2023-07-24T06:26:49;18.70;99.90
2012;DHT22;1009;51.436;6.972;2023-07-24T06:29:16;18.60;99.90
2012;DHT22;1009;51.436;6.972;2023-07-24T06:31:42;18.70;99.90
2012;DHT22;1009;51.436;6.972;2023-07-24T06:34:09;18.70;99.90
2012;DHT22;1009;51.436;6.972;2023-07-24T06:36:37;18.70;99.90
2012;DHT22;1009;51.436;6.972;2023-07-24T06:39:04;18.70;99.90
2012;DHT22;1009;51.436;6.972;2023-07-24T06:41:30;18.70;99.90
2012;DHT22;1009;51.436;6.972;2023-07-24T06:43:57;18.70;99.90
2012;DHT22;1009;51.436;6.972;2023-07-24T06:46:24;18.70;99.90
2012;DHT22;1009;51.436;6.972;2023-07-24T06:48:51;18.80;99.90
2012;DHT22;1009;51.436;6.972;2023-07-24T06:51:18;18.70;99.90
2012;DHT22;1009;51.436;6.972;2023-07-24T06:53:46;18.70;99.90
2012;DHT22;1009;51.436;6.972;2023-07-24T06:56:12;18.70;99.90
2012;DHT22;1009;51.436;6.972;2023-07-24T06:58:39;18.80;99.90
2012;DHT22;1009;51.436;6.972;2023-07-24T07:01:06;18.70;99.90
2012;DHT22;1009;51.436;6.972;2023-07-24T07:03:33;18.70;99.90
2012;DHT22;1009;51.436;6.972;2023-07-24T07:06:01;18.80;99.90
2012;DHT22;1009;51.436;6.972;2023-07-24T07:08:28;18.80;99.90
2012;DHT22;1009;51.436;6.972;2023-07-24T07:10:57;18.90;99.90
2012;DHT22;1009;51.436;6.972;2023-07-24T07:13:24;19.00;99.90
2012;DHT22;1009;51.436;6.972;2023-07-24T07:15:51;19.10;99.90
2012;DHT22;1009;51.436;6.972;2023-07-24T07:18:18;19.10;99.90
2012;DHT22;1009;51.436;6.972;2023-07-24T07:20:46;19.00;99.90
2012;DHT22;1009;51.436;6.972;2023-07-24T07:23:13;19.00;99.90
2012;DHT22;1009;51.436;6.972;2023-07-24T07:25:40;19.00;99.90
2012;DHT22;1009;51.436;6.972;2023-07-24T07:28:09;19.10;99.90
2012;DHT22;1009;51.436;6.972;2023-07-24T07:30:36;18.90;99.90
2012;DHT22;1009;51.436;6.972;2023-07-24T07:33:03;18.80;99.90
2012;DHT22;1009;51.436;6.972;2023-07-24T07:35:31;18.80;99.90
2012;DHT22;1009;51.436;6.972;2023-07-24T07:37:58;18.80;99.90
2012;DHT22;1009;51.436;6.972;2023-07-24T07:40:25;18.80;99.90
2012;DHT22;1009;51.436;6.972;2023-07-24T07:42:52;18.80;99.90
2012;DHT22;1009;51.436;6.972;2023-07-24T07:45:20;18.90;99.90
2012;DHT22;1009;51.436;6.972;2023-07-24T07:47:47;18.90;99.90
2012;DHT22;1009;51.436;6.972;2023-07-24T07:50:14;19.00;99.90
2012;DHT22;1009;51.436;6.972;2023-07-24T07:52:41;19.00;99.90
2012;DHT22;1009;51.436;6.972;2023-07-24T07:55:08;19.00;99.90
2012;DHT22;1009;51.436;6.972;2023-07-24T07:57:36;19.10;99.90
2012;DHT22;1009;51.436;6.972;2023-07-24T08:00:04;19.10;99.90
2012;DHT22;1009;51.436;6.972;2023-07-24T08:02:33;19.20;99.90
2012;DHT22;1009;51.436;6.972;2023-07-24T08:05:00;19.20;99.90
2012;DHT22;1009;51.436;6.972;2023-07-24T08:07:26;19.20;99.90
2012;DHT22;1009;51.436;6.972;2023-07-24T08:09:53;19.20;99.90
2012;DHT22;1009;51.436;6.972;2023-07-24T08:12:21;19.20;99.90
2012;DHT22;1009;51.436;6.972;2023-07-24T08:14:48;19.20;99.90
2012;DHT22;1009;51.436;6.972;2023-07-24T08:17:15;19.20;99.90
2012;DHT22;1009;51.436;6.972;2023-07-24T08:19:43;19.30;99.90
2012;DHT22;1009;51.436;6.972;2023-07-24T08:22:10;19.20;99.90
2012;DHT22;1009;51.436;6.972;2023-07-24T08:24:37;19.00;99.90
2012;DHT22;1009;51.436;6.972;2023-07-24T08:27:04;19.00;99.90
2012;DHT22;1009;51.436;6.972;2023-07-24T08:29:31;19.10;99.90
2012;DHT22;1009;51.436;6.972;2023-07-24T08:31:58;19.10;99.90
2012;DHT22;1009;51.436;6.972;2023-07-24T08:34:25;19.10;99.90
2012;DHT22;1009;51.436;6.972;2023-07-24T08:36:53;19.20;99.90
2012;DHT22;1009;51.436;6.972;2023-07-24T08:39:20;19.40;99.90
2012;DHT22;1009;51.436;6.972;2023-07-24T08:41:47;19.60;99.90
2012;DHT22;1009;51.436;6.972;2023-07-24T08:44:14;19.90;99.90
2012;DHT22;1009;51.436;6.972;2023-07-24T08:46:41;20.00;99.90
2012;DHT22;1009;51.436;6.972;2023-07-24T08:49:11;20.20;99.90
2012;DHT22;1009;51.436;6.972;2023-07-24T08:51:40;20.20;99.90
2012;DHT22;1009;51.436;6.972;2023-07-24T08:54:08;20.20;99.90
2012;DHT22;1009;51.436;6.972;2023-07-24T08:56:36;20.20;99.90
2012;DHT22;1009;51.436;6.972;2023-07-24T08:59:03;20.10;99.90
2012;DHT22;1009;51.436;6.972;2023-07-24T09:01:30;20.20;99.90
2012;DHT22;1009;51.436;6.972;2023-07-24T09:03:57;20.10;99.90
2012;DHT22;1009;51.436;6.972;2023-07-24T09:06:25;20.40;99.90
2012;DHT22;1009;51.436;6.972;2023-07-24T09:08:54;20.70;99.90
2012;DHT22;1009;51.436;6.972;2023-07-24T09:11:22;20.90;99.90
2012;DHT22;1009;51.436;6.972;2023-07-24T09:13:49;21.10;99.90
2012;DHT22;1009;51.436;6.972;2023-07-24T09:16:23;21.20;99.90
2012;DHT22;1009;51.436;6.972;2023-07-24T09:18:51;21.30;99.90
2012;DHT22;1009;51.436;6.972;2023-07-24T09:21:27;21.30;99.90
2012;DHT22;1009;51.436;6.972;2023-07-24T09:23:55;21.20;99.90
2012;DHT22;1009;51.436;6.972;2023-07-24T09:26:23;21.10;99.90
2012;DHT22;1009;51.436;6.972;2023-07-24T09:28:53;21.00;99.90
2012;DHT22;1009;51.436;6.972;2023-07-24T09:31:20;21.00;99.90
2012;DHT22;1009;51.436;6.972;2023-07-24T09:33:47;20.60;99.90
2012;DHT22;1009;51.436;6.972;2023-07-24T09:36:14;20.50;99.90
2012;DHT22;1009;51.436;6.972;2023-07-24T09:38:41;20.30;99.90
2012;DHT22;1009;51.436;6.972;2023-07-24T09:41:08;20.10;99.90
2012;DHT22;1009;51.436;6.972;2023-07-24T09:43:36;20.00;99.90
2012;DHT22;1009;51.436;6.972;2023-07-24T09:46:04;20.00;99.90
2012;DHT22;1009;51.436;6.972;2023-07-24T09:48:32;20.00;99.90
2012;DHT22;1009;51.436;6.972;2023-07-24T09:51:00;20.00;99.90
2012;DHT22;1009;51.436;6.972;2023-07-24T09:53:32;20.10;99.90
2012;DHT22;1009;51.436;6.972;2023-07-24T09:56:03;19.90;99.90
2012;DHT22;1009;51.436;6.972;2023-07-24T09:58:32;19.90;99.90
2012;DHT22;1009;51.436;6.972;2023-07-24T10:01:02;19.80;99.90
2012;DHT22;1009;51.436;6.972;2023-07-24T10:03:29;19.80;99.90
2012;DHT22;1009;51.436;6.972;2023-07-24T10:05:56;19.70;99.90
2012;DHT22;1009;51.436;6.972;2023-07-24T10:08:24;19.70;99.90
2012;DHT22;1009;51.436;6.972;2023-07-24T10:10:51;19.90;99.90
2012;DHT22;1009;51.436;6.972;2023-07-24T10:13:22;19.90;99.90
2012;DHT22;1009;51.436;6.972;2023-07-24T10:15:49;20.00;99.90
2012;DHT22;1009;51.436;6.972;2023-07-24T10:18:17;20.10;99.90
2012;DHT22;1009;51.436;6.972;2023-07-24T10:20:45;20.00;99.90
2012;DHT22;1009;51.436;6.972;2023-07-24T10:23:17;20.20;99.90
2012;DHT22;1009;51.436;6.972;2023-07-24T10:25:45;20.60;99.90
2012;DHT22;1009;51.436;6.972;2023-07-24T10:28:12;21.00;99.90
2012;DHT22;1009;51.436;6.972;2023-07-24T10:30:44;21.30;99.90
2012;DHT22;1009;51.436;6.972;2023-07-24T10:33:12;21.40;99.90
2012;DHT22;1009;51.436;6.972;2023-07-24T10:35:43;21.30;99.90
2012;DHT22;1009;51.436;6.972;2023-07-24T10:38:12;21.30;99.90
2012;DHT22;1009;51.436;6.972;2023-07-24T10:40:40;21.10;99.90
2012;DHT22;1009;51.436;6.972;2023-07-24T10:43:08;21.10;99.90
2012;DHT22;1009;51.436;6.972;2023-07-24T10:45:42;21.10;99.90
2012;DHT22;1009;51.436;6.972;2023-07-24T10:48:12;21.00;99.90
2012;DHT22;1009;51.436;6.972;2023-07-24T10:50:42;20.70;99.90
2012;DHT22;1009;51.436;6.972;2023-07-24T10:53:09;20.60;99.90
2012;DHT22;1009;51.436;6.972;2023-07-24T10:55:36;20.50;99.90
2012;DHT22;1009;51.436;6.972;2023-07-24T10:58:03;20.30;99.90
2012;DHT22;1009;51.436;6.972;2023-07-24T11:00:30;20.30;99.90
2012;DHT22;1009;51.436;6.972;2023-07-24T11:02:56;20.30;99.90
2012;DHT22;1009;51.436;6.972;2023-07-24T11:05:24;20.30;99.90
2012;DHT22;1009;51.436;6.972;2023-07-24T11:07:52;20.30;99.90
2012;DHT22;1009;51.436;6.972;2023-07-24T11:10:20;20.20;99.90
2012;DHT22;1009;51.436;6.972;2023-07-24T11:12:47;20.10;99.90
2012;DHT22;1009;51.436;6.972;2023-07-24T11:15:15;20.10;99.90
2012;DHT22;1009;51.436;6.972;2023-07-24T11:17:42;20.10;99.90
2012;DHT22;1009;51.436;6.972;2023-07-24T11:20:11;20.20;99.90
2012;DHT22;1009;51.436;6.972;2023-07-24T11:22:39;20.20;99.90
2012;DHT22;1009;51.436;6.972;2023-07-24T11:25:08;20.20;99.90
2012;DHT22;1009;51.436;6.972;2023-07-24T11:27:38;20.10;99.90
2012;DHT22;1009;51.436;6.972;2023-07-24T11:30:07;20.10;99.90
2012;DHT22;1009;51.436;6.972;2023-07-24T11:32:34;20.00;99.90
2012;DHT22;1009;51.436;6.972;2023-07-24T11:35:02;19.80;99.90
2012;DHT22;1009;51.436;6.972;2023-07-24T11:37:29;19.60;99.90
2012;DHT22;1009;51.436;6.972;2023-07-24T11:39:57;19.40;99.90
2012;DHT22;1009;51.436;6.972;2023-07-24T11:42:26;19.30;99.90
2012;DHT22;1009;51.436;6.972;2023-07-24T11:44:54;19.20;99.90
2012;DHT22;1009;51.436;6.972;2023-07-24T11:47:21;19.00;99.90
2012;DHT22;1009;51.436;6.972;2023-07-24T11:49:57;18.80;99.90
2012;DHT22;1009;51.436;6.972;2023-07-24T11:52:24;18.60;99.90
2012;DHT22;1009;51.436;6.972;2023-07-24T11:54:57;18.40;99.90
2012;DHT22;1009;51.436;6.972;2023-07-24T11:57:28;18.00;99.90
2012;DHT22;1009;51.436;6.972;2023-07-24T11:59:55;17.80;99.90
2012;DHT22;1009;51.436;6.972;2023-07-24T12:02:25;17.60;99.90
2012;DHT22;1009;51.436;6.972;2023-07-24T12:04:56;17.40;99.90
2012;DHT22;1009;51.436;6.972;2023-07-24T12:07:29;17.40;99.90
2012;DHT22;1009;51.436;6.972;2023-07-24T12:09:56;17.40;99.90
2012;DHT22;1009;51.436;6.972;2023-07-24T12:12:23;17.40;99.90
2012;DHT22;1009;51.436;6.972;2023-07-24T12:15:03;17.50;99.90
2012;DHT22;1009;51.436;6.972;2023-07-24T12:17:30;17.50;99.90
2012;DHT22;1009;51.436;6.972;2023-07-24T12:19:57;17.50;99.90
2012;DHT22;1009;51.436;6.972;2023-07-24T12:22:24;17.40;99.90
2012;DHT22;1009;51.436;6.972;2023-07-24T12:24:50;17.30;99.90
2012;DHT22;1009;51.436;6.972;2023-07-24T12:27:17;17.30;99.90
2012;DHT22;1009;51.436;6.972;2023-07-24T12:29:44;17.40;99.90
2012;DHT22;1009;51.436;6.972;2023-07-24T12:32:12;17.70;99.90
2012;DHT22;1009;51.436;6.972;2023-07-24T12:34:39;18.10;99.90
2012;DHT22;1009;51.436;6.972;2023-07-24T12:37:05;18.40;99.90
2012;DHT22;1009;51.436;6.972;2023-07-24T12:39:32;18.30;99.90
2012;DHT22;1009;51.436;6.972;2023-07-24T12:41:59;18.20;99.90
2012;DHT22;1009;51.436;6.972;2023-07-24T12:44:26;18.10;99.90
2012;DHT22;1009;51.436;6.972;2023-07-24T12:46:52;17.90;99.90
2012;DHT22;1009;51.436;6.972;2023-07-24T12:49:20;18.10;99.90
2012;DHT22;1009;51.436;6.972;2023-07-24T12:51:47;18.30;99.90
2012;DHT22;1009;51.436;6.972;2023-07-24T12:54:14;18.40;99.90
2012;DHT22;1009;51.436;6.972;2023-07-24T12:56:41;18.40;99.90
2012;DHT22;1009;51.436;6.972;2023-07-24T12:59:07;18.60;99.90
2012;DHT22;1009;51.436;6.972;2023-07-24T13:01:34;19.30;99.90
2012;DHT22;1009;51.436;6.972;2023-07-24T13:04:01;19.90;99.90
2012;DHT22;1009;51.436;6.972;2023-07-24T13:06:29;20.10;99.90
2012;DHT22;1009;51.436;6.972;2023-07-24T13:08:56;20.30;99.90
2012;DHT22;1009;51.436;6.972;2023-07-24T13:11:22;20.70;99.90
2012;DHT22;1009;51.436;6.972;2023-07-24T13:13:49;20.80;99.90
2012;DHT22;1009;51.436;6.972;2023-07-24T13:16:16;21.20;99.90
2012;DHT22;1009;51.436;6.972;2023-07-24T13:18:43;21.20;99.90
2012;DHT22;1009;51.436;6.972;2023-07-24T13:21:10;21.20;99.90
2012;DHT22;1009;51.436;6.972;2023-07-24T13:23:38;21.10;99.90
2012;DHT22;1009;51.436;6.972;2023-07-24T13:26:05;21.30;99.90
2012;DHT22;1009;51.436;6.972;2023-07-24T13:28:33;21.70;99.90
2012;DHT22;1009;51.436;6.972;2023-07-24T13:31:11;21.80;99.90
2012;DHT22;1009;51.436;6.972;2023-07-24T13:33:37;22.20;99.90
2012;DHT22;1009;51.436;6.972;2023-07-24T13:36:04;22.40;99.90
2012;DHT22;1009;51.436;6.972;2023-07-24T13:38:31;22.50;99.90
2012;DHT22;1009;51.436;6.972;2023-07-24T13:40:59;22.70;99.90
2012;DHT22;1009;51.436;6.972;2023-07-24T13:43:27;22.80;99.90
2012;DHT22;1009;51.436;6.972;2023-07-24T13:45:53;22.90;99.90
2012;DHT22;1009;51.436;6.972;2023-07-24T13:48:20;23.10;99.90
2012;DHT22;1009;51.436;6.972;2023-07-24T13:50:47;23.10;99.90
2012;DHT22;1009;51.436;6.972;2023-07-24T13:53:14;23.10;99.90
2012;DHT22;1009;51.436;6.972;2023-07-24T13:55:41;23.00;99.90
2012;DHT22;1009;51.436;6.972;2023-07-24T13:58:09;23.20;99.90
2012;DHT22;1009;51.436;6.972;2023-07-24T14:00:36;23.30;99.90
2012;DHT22;1009;51.436;6.972;2023-07-24T14:03:02;23.10;99.90
2012;DHT22;1009;51.436;6.972;2023-07-24T14:05:29;22.90;99.90
2012;DHT22;1009;51.436;6.972;2023-07-24T14:07:56;22.70;99.90
2012;DHT22;1009;51.436;6.972;2023-07-24T14:10:23;22.70;99.90
2012;DHT22;1009;51.436;6.972;2023-07-24T14:12:50;22.70;99.90
2012;DHT22;1009;51.436;6.972;2023-07-24T14:15:18;22.80;99.90
2012;DHT22;1009;51.436;6.972;2023-07-24T14:17:45;22.60;99.90
2012;DHT22;1009;51.436;6.972;2023-07-24T14:20:12;22.30;99.90
2012;DHT22;1009;51.436;6.972;2023-07-24T14:22:39;22.10;99.90
2012;DHT22;1009;51.436;6.972;2023-07-24T14:25:06;21.90;99.90
2012;DHT22;1009;51.436;6.972;2023-07-24T14:27:33;21.80;99.90
2012;DHT22;1009;51.436;6.972;2023-07-24T14:30:00;21.60;99.90
2012;DHT22;1009;51.436;6.972;2023-07-24T14:32:29;21.60;99.90
2012;DHT22;1009;51.436;6.972;2023-07-24T14:34:55;21.60;99.90
2012;DHT22;1009;51.436;6.972;2023-07-24T14:37:22;21.60;99.90
2012;DHT22;1009;51.436;6.972;2023-07-24T14:39:51;21.70;99.90
2012;DHT22;1009;51.436;6.972;2023-07-24T14:42:18;21.60;99.90
2012;DHT22;1009;51.436;6.972;2023-07-24T14:44:45;21.50;99.90
2012;DHT22;1009;51.436;6.972;2023-07-24T14:47:12;21.20;99.90
2012;DHT22;1009;51.436;6.972;2023-07-24T14:49:42;21.00;99.90
2012;DHT22;1009;51.436;6.972;2023-07-24T14:52:09;20.80;99.90
2012;DHT22;1009;51.436;6.972;2023-07-24T14:54:36;20.60;99.90
2012;DHT22;1009;51.436;6.972;2023-07-24T14:57:03;20.40;99.90
2012;DHT22;1009;51.436;6.972;2023-07-24T14:59:30;20.30;99.90
2012;DHT22;1009;51.436;6.972;2023-07-24T15:01:57;20.20;99.90
2012;DHT22;1009;51.436;6.972;2023-07-24T15:04:24;20.40;99.90
2012;DHT22;1009;51.436;6.972;2023-07-24T15:06:52;20.70;99.90
2012;DHT22;1009;51.436;6.972;2023-07-24T15:09:18;20.90;99.90
2012;DHT22;1009;51.436;6.972;2023-07-24T15:11:45;20.90;99.90
2012;DHT22;1009;51.436;6.972;2023-07-24T15:14:12;20.80;99.90
2012;DHT22;1009;51.436;6.972;2023-07-24T15:16:39;20.80;99.90
2012;DHT22;1009;51.436;6.972;2023-07-24T15:19:05;20.70;99.90
2012;DHT22;1009;51.436;6.972;2023-07-24T15:21:32;20.70;99.90
2012;DHT22;1009;51.436;6.972;2023-07-24T15:24:00;20.60;99.90
2012;DHT22;1009;51.436;6.972;2023-07-24T15:26:27;20.70;99.90
2012;DHT22;1009;51.436;6.972;2023-07-24T15:28:54;20.80;99.90
2012;DHT22;1009;51.436;6.972;2023-07-24T15:31:21;20.70;99.90
2012;DHT22;1009;51.436;6.972;2023-07-24T15:33:47;20.60;99.90
2012;DHT22;1009;51.436;6.972;2023-07-24T15:36:14;20.50;99.90
2012;DHT22;1009;51.436;6.972;2023-07-24T15:38:41;20.50;99.90
2012;DHT22;1009;51.436;6.972;2023-07-24T15:41:09;20.50;99.90
2012;DHT22;1009;51.436;6.972;2023-07-24T15:43:36;20.50;99.90
2012;DHT22;1009;51.436;6.972;2023-07-24T15:46:02;20.50;99.90
2012;DHT22;1009;51.436;6.972;2023-07-24T15:48:29;20.50;99.90
2012;DHT22;1009;51.436;6.972;2023-07-24T15:50:56;20.40;99.90
2012;DHT22;1009;51.436;6.972;2023-07-24T15:53:23;20.30;99.90
2012;DHT22;1009;51.436;6.972;2023-07-24T15:55:50;20.10;99.90
2012;DHT22;1009;51.436;6.972;2023-07-24T15:58:18;20.00;99.90
2012;DHT22;1009;51.436;6.972;2023-07-24T16:00:45;19.80;99.90
2012;DHT22;1009;51.436;6.972;2023-07-24T16:03:11;19.60;99.90